createdAt,value
2018-03-23T00:01:40.375Z,61.56
2018-03-23T00:04:09.049Z,60.86
2018-03-23T00:06:37.865Z,60.21
2018-03-23T00:09:07.179Z,60.06
2018-03-23T00:11:36.379Z,58.42
2018-03-23T00:14:05.141Z,58.01
2018-03-23T00:16:33.918Z,57.02
2018-03-23T00:19:02.517Z,56.67
2018-03-23T00:21:31.202Z,56.75
2018-03-23T00:23:59.834Z,56.10
2018-03-23T00:26:28.514Z,54.46
2018-03-23T00:28:58.078Z,55.15
2018-03-23T00:31:27.108Z,55.46
2018-03-23T00:33:55.759Z,54.90
2018-03-23T00:36:25.223Z,56.04
2018-03-23T00:38:54.031Z,56.74
2018-03-23T00:41:23.748Z,58.62
2018-03-23T00:43:52.882Z,59.05
2018-03-23T00:46:21.476Z,58.03
2018-03-23T00:48:50.147Z,56.38
2018-03-23T00:51:19.587Z,55.81
2018-03-23T00:53:48.233Z,58.30
2018-03-23T00:56:17.933Z,59.73
2018-03-23T00:58:46.674Z,57.42
2018-03-23T01:01:16.009Z,56.92
2018-03-23T01:03:44.678Z,57.58
2018-03-23T01:06:13.455Z,57.67
2018-03-23T01:08:42.855Z,58.14
2018-03-23T01:11:12.240Z,59.18
2018-03-23T01:13:41.862Z,60.03
2018-03-23T01:16:10.972Z,58.32
2018-03-23T01:18:39.517Z,56.72
2018-03-23T01:21:09.645Z,55.55
2018-03-23T01:23:38.238Z,54.91
2018-03-23T01:26:06.942Z,56.15
2018-03-23T01:28:35.569Z,55.15
2018-03-23T01:31:05.221Z,53.54
2018-03-23T01:33:34.643Z,52.64
2018-03-23T01:36:04.111Z,53.83
2018-03-23T01:38:32.773Z,54.45
2018-03-23T01:41:01.730Z,54.43
2018-03-23T01:43:31.312Z,53.28
2018-03-23T01:46:00.205Z,52.18
2018-03-23T01:48:28.795Z,52.12
2018-03-23T01:50:57.462Z,52.04
2018-03-23T01:53:43.873Z,50.79
2018-03-23T01:56:12.612Z,49.92
2018-03-23T01:58:41.380Z,48.94
2018-03-23T02:01:11.007Z,50.76
2018-03-23T02:03:40.712Z,53.20
2018-03-23T02:06:09.365Z,51.50
2018-03-23T02:08:37.993Z,49.40
2018-03-23T02:11:06.665Z,48.23
2018-03-23T02:13:35.199Z,48.02
2018-03-23T02:16:03.978Z,47.79
2018-03-23T02:18:32.619Z,48.49
2018-03-23T02:21:01.150Z,48.60
2018-03-23T02:23:29.774Z,48.71
2018-03-23T02:25:59.259Z,49.35
2018-03-23T02:28:27.923Z,48.97
2018-03-23T02:30:56.624Z,49.38
2018-03-23T02:33:25.968Z,49.27
2018-03-23T02:35:55.050Z,49.30
2018-03-23T02:38:24.500Z,49.93
2018-03-23T02:40:53.107Z,50.58
2018-03-23T02:43:21.706Z,50.41
2018-03-23T02:45:50.191Z,50.24
2018-03-23T02:48:19.586Z,49.89
2018-03-23T02:50:48.297Z,49.63
2018-03-23T02:53:16.834Z,49.94
2018-03-23T02:55:45.377Z,50.24
2018-03-23T02:58:13.969Z,50.34
2018-03-23T03:00:42.562Z,50.87
2018-03-23T03:03:11.266Z,51.15
2018-03-23T03:05:40.308Z,51.36
2018-03-23T03:08:09.513Z,51.85
2018-03-23T03:10:39.264Z,52.21
2018-03-23T03:13:07.826Z,52.38
2018-03-23T03:15:36.517Z,52.04
2018-03-23T03:18:05.932Z,52.55
2018-03-23T03:20:34.531Z,52.58
2018-03-23T03:23:03.246Z,52.42
2018-03-23T03:25:32.611Z,53.03
2018-03-23T03:28:01.334Z,53.59
2018-03-23T03:30:29.987Z,54.12
2018-03-23T03:33:00.125Z,54.16
2018-03-23T03:35:28.845Z,54.29
2018-03-23T03:37:59.524Z,54.05
2018-03-23T03:40:28.312Z,54.21
2018-03-23T03:42:56.959Z,54.22
2018-03-23T03:45:25.741Z,54.42
2018-03-23T03:47:54.362Z,54.64
2018-03-23T03:50:23.092Z,54.66
2018-03-23T03:52:51.817Z,55.22
2018-03-23T03:55:20.426Z,55.57
2018-03-23T03:57:49.978Z,55.72
2018-03-23T04:00:19.265Z,56.56
2018-03-23T04:02:47.871Z,57.13
2018-03-23T04:05:16.557Z,57.29
2018-03-23T04:07:45.389Z,57.29
2018-03-23T04:10:14.464Z,57.18
2018-03-23T04:12:43.751Z,57.73
2018-03-23T04:15:13.408Z,58.51
2018-03-23T04:17:42.144Z,58.84
2018-03-23T04:20:11.589Z,58.45
2018-03-23T04:22:40.158Z,58.48
2018-03-23T04:25:08.814Z,58.62
2018-03-23T04:27:37.331Z,59.41
2018-03-23T04:30:06.009Z,59.48
2018-03-23T04:32:34.624Z,58.30
2018-03-23T04:35:04.110Z,58.30
2018-03-23T04:37:33.971Z,58.37
2018-03-23T04:40:04.214Z,59.02
2018-03-23T04:42:33.318Z,58.90
2018-03-23T04:45:01.988Z,59.08
2018-03-23T04:47:30.731Z,59.35
2018-03-23T04:49:59.543Z,60.13
2018-03-23T04:52:28.150Z,59.81
2018-03-23T04:54:56.723Z,59.88
2018-03-23T04:57:25.346Z,61.05
2018-03-23T04:59:54.043Z,61.53
2018-03-23T05:02:22.726Z,61.38
2018-03-23T05:04:51.354Z,60.44
2018-03-23T05:07:19.949Z,59.87
2018-03-23T05:09:48.730Z,59.69
2018-03-23T05:12:17.632Z,59.52
2018-03-23T05:14:47.629Z,60.16
2018-03-23T05:17:16.429Z,60.62
2018-03-23T05:19:44.941Z,61.51
2018-03-23T05:22:13.635Z,60.53
2018-03-23T05:24:42.301Z,60.21
2018-03-23T05:27:11.628Z,61.47
2018-03-23T05:29:41.036Z,61.36
2018-03-23T05:32:09.774Z,59.61
2018-03-23T05:34:38.562Z,60.27
2018-03-23T05:37:08.055Z,60.03
2018-03-23T05:39:36.737Z,59.39
2018-03-23T05:42:05.358Z,57.62
2018-03-23T05:44:34.553Z,55.90
2018-03-23T05:47:03.963Z,53.63
2018-03-23T05:49:32.784Z,51.77
2018-03-23T05:52:01.411Z,50.75
2018-03-23T05:54:30.104Z,49.60
2018-03-23T05:56:58.824Z,47.91
2018-03-23T05:59:27.539Z,46.25
2018-03-23T06:01:56.257Z,46.44
2018-03-23T06:04:24.837Z,45.12
2018-03-23T06:06:53.536Z,44.10
2018-03-23T06:09:22.130Z,44.05
2018-03-23T06:11:50.742Z,43.35
2018-03-23T06:14:19.340Z,42.62
2018-03-23T06:16:48.281Z,44.01
2018-03-23T06:19:17.093Z,43.86
2018-03-23T06:21:46.760Z,42.10
2018-03-23T06:24:16.308Z,41.22
2018-03-23T06:26:45.134Z,41.27
2018-03-23T06:29:13.831Z,42.81
2018-03-23T06:31:42.423Z,43.32
2018-03-23T06:34:11.807Z,42.13
2018-03-23T06:36:40.652Z,39.79
2018-03-23T06:39:09.995Z,38.08
2018-03-23T06:41:38.682Z,36.42
2018-03-23T06:44:08.118Z,34.47
2018-03-23T06:46:36.771Z,35.00
2018-03-23T06:49:05.963Z,34.80
2018-03-23T06:51:35.330Z,34.67
2018-03-23T06:54:05.107Z,33.03
2018-03-23T06:56:33.723Z,32.69
2018-03-23T06:59:02.426Z,32.33
2018-03-23T07:01:31.059Z,32.87
2018-03-23T07:03:59.712Z,32.23
2018-03-23T07:06:28.467Z,31.63
2018-03-23T07:08:57.081Z,31.43
2018-03-23T07:11:25.649Z,30.54
2018-03-23T07:13:54.176Z,29.80
2018-03-23T07:16:22.822Z,29.09
2018-03-23T07:18:52.290Z,28.85
2018-03-23T07:21:20.888Z,28.94
2018-03-23T07:23:50.146Z,29.13
2018-03-23T07:26:19.445Z,29.22
2018-03-23T07:28:48.098Z,30.65
2018-03-23T07:31:16.652Z,30.04
2018-03-23T07:33:45.682Z,28.08
2018-03-23T07:36:14.729Z,27.83
2018-03-23T07:38:43.348Z,27.90
2018-03-23T07:41:12.666Z,26.84
2018-03-23T07:43:42.123Z,25.73
2018-03-23T07:46:10.677Z,26.00
2018-03-23T07:48:39.585Z,26.08
2018-03-23T07:51:08.348Z,26.21
2018-03-23T07:53:37.036Z,25.39
2018-03-23T07:56:06.743Z,24.78
2018-03-23T07:58:37.301Z,24.02
2018-03-23T08:01:06.921Z,24.10
2018-03-23T08:03:36.364Z,23.85
2018-03-23T08:06:05.010Z,23.24
2018-03-23T08:08:33.642Z,22.57
2018-03-23T08:11:02.305Z,21.79
2018-03-23T08:13:31.044Z,21.27
2018-03-23T08:15:59.783Z,22.21
2018-03-23T08:18:28.458Z,21.54
2018-03-23T08:20:57.056Z,20.94
2018-03-23T08:23:25.634Z,21.19
2018-03-23T08:25:54.876Z,21.42
2018-03-23T08:28:23.824Z,21.73
2018-03-23T08:30:52.657Z,21.85
2018-03-23T08:33:21.985Z,22.36
2018-03-23T08:35:50.583Z,25.58
2018-03-23T08:38:19.244Z,25.11
2018-03-23T08:40:47.880Z,25.17
2018-03-23T08:43:17.273Z,24.25
2018-03-23T08:45:45.911Z,22.63
2018-03-23T08:48:15.278Z,21.99
2018-03-23T08:50:44.032Z,21.69
2018-03-23T08:53:13.524Z,20.84
2018-03-23T08:55:42.150Z,20.45
2018-03-23T08:58:11.407Z,21.78
2018-03-23T09:00:41.595Z,20.34
2018-03-23T09:03:10.343Z,19.65
2018-03-23T09:05:39.850Z,19.73
2018-03-23T09:08:08.666Z,19.75
2018-03-23T09:10:37.517Z,20.39
2018-03-23T09:13:06.227Z,20.72
2018-03-23T09:15:34.773Z,21.99
2018-03-23T09:18:03.412Z,21.49
2018-03-23T09:20:32.036Z,21.44
2018-03-23T09:23:00.740Z,23.06
2018-03-23T09:25:29.381Z,22.90
2018-03-23T09:27:58.069Z,24.44
2018-03-23T09:30:28.309Z,25.99
2018-03-23T09:32:57.363Z,24.85
2018-03-23T09:35:26.118Z,26.19
2018-03-23T09:37:54.737Z,24.49
2018-03-23T09:40:23.566Z,22.77
2018-03-23T09:42:52.154Z,23.86
2018-03-23T09:45:20.810Z,24.12
2018-03-23T09:47:49.524Z,24.34
2018-03-23T09:50:18.142Z,25.60
2018-03-23T09:52:47.743Z,26.68
2018-03-23T09:55:16.433Z,27.14
2018-03-23T09:57:45.420Z,26.81
2018-03-23T10:00:14.444Z,24.40
2018-03-23T10:02:43.473Z,21.09
2018-03-23T10:05:13.012Z,20.84
2018-03-23T10:07:41.737Z,20.06
2018-03-23T10:10:10.449Z,20.14
2018-03-23T10:12:39.161Z,19.86
2018-03-23T10:15:08.173Z,18.36
2018-03-23T10:17:36.783Z,20.24
2018-03-23T10:20:06.568Z,22.24
2018-03-23T10:22:35.165Z,22.50
2018-03-23T10:25:03.890Z,20.21
2018-03-23T10:27:32.575Z,21.48
2018-03-23T10:30:01.142Z,24.20
2018-03-23T10:32:30.647Z,23.27
2018-03-23T10:34:59.849Z,23.52
2018-03-23T10:37:28.938Z,24.07
2018-03-23T10:39:57.715Z,22.45
2018-03-23T10:42:27.132Z,21.80
2018-03-23T10:44:56.482Z,23.19
2018-03-23T10:47:25.949Z,21.53
2018-03-23T10:49:54.659Z,19.78
2018-03-23T10:52:23.765Z,20.14
2018-03-23T10:54:52.563Z,19.34
2018-03-23T10:57:21.163Z,18.80
2018-03-23T10:59:49.675Z,19.37
2018-03-23T11:05:25.996Z,17.77
2018-03-23T11:07:55.269Z,17.75
2018-03-23T11:10:24.149Z,18.03
2018-03-23T11:12:53.656Z,18.51
2018-03-23T11:15:22.808Z,18.74
2018-03-23T11:17:51.491Z,18.96
2018-03-23T11:20:20.222Z,20.95
2018-03-23T11:22:48.912Z,19.98
2018-03-23T11:25:17.605Z,22.10
2018-03-23T11:27:46.198Z,22.61
2018-03-23T11:30:14.929Z,23.88
2018-03-23T11:32:43.463Z,23.71
2018-03-23T11:35:12.169Z,21.33
2018-03-23T11:37:40.815Z,19.78
2018-03-23T11:40:10.747Z,20.33
2018-03-23T11:42:40.441Z,21.84
2018-03-23T11:45:09.097Z,21.94
2018-03-23T11:47:37.659Z,23.12
2018-03-23T11:50:06.345Z,24.01
2018-03-23T11:52:35.066Z,23.23
2018-03-23T11:55:04.420Z,22.42
2018-03-23T11:57:33.154Z,22.01
2018-03-23T12:00:01.894Z,21.64
2018-03-23T12:02:30.491Z,22.83
2018-03-23T12:04:59.133Z,21.83
2018-03-23T12:07:27.762Z,20.64
2018-03-23T12:09:56.462Z,19.95
2018-03-23T12:12:25.927Z,20.77
2018-03-23T12:14:55.837Z,22.56
2018-03-23T12:17:24.574Z,22.46
2018-03-23T12:19:54.009Z,21.92
2018-03-23T12:22:22.742Z,20.80
2018-03-23T12:24:51.637Z,20.22
2018-03-23T12:27:20.452Z,20.32
2018-03-23T12:29:49.493Z,20.90
2018-03-23T12:32:18.546Z,21.48
2018-03-23T12:34:48.006Z,21.83
2018-03-23T12:37:16.618Z,22.59
2018-03-23T12:39:45.297Z,23.75
2018-03-23T12:42:16.060Z,23.99
2018-03-23T12:44:46.289Z,23.99
2018-03-23T12:47:15.166Z,24.41
2018-03-23T12:49:44.009Z,24.10
2018-03-23T12:52:13.679Z,21.58
2018-03-23T12:54:42.411Z,20.82
2018-03-23T12:57:11.172Z,20.00
2018-03-23T12:59:39.961Z,19.47
2018-03-23T13:02:09.632Z,19.51
2018-03-23T13:04:38.282Z,19.04
2018-03-23T13:07:08.538Z,19.80
2018-03-23T13:09:38.065Z,20.28
2018-03-23T13:12:08.547Z,21.44
2018-03-23T13:14:38.211Z,22.85
2018-03-23T13:17:07.416Z,23.44
2018-03-23T13:19:36.192Z,22.54
2018-03-23T13:22:05.385Z,22.46
2018-03-23T13:24:34.283Z,22.48
2018-03-23T13:27:03.910Z,22.82
2018-03-23T13:29:32.856Z,22.90
2018-03-23T13:32:01.755Z,23.37
2018-03-23T13:34:31.413Z,23.41
2018-03-23T13:37:00.278Z,24.11
2018-03-23T13:39:29.215Z,23.78
2018-03-23T13:41:58.920Z,23.45
2018-03-23T13:44:28.116Z,24.66
2018-03-23T13:46:56.785Z,24.66
2018-03-23T13:49:25.448Z,25.78
2018-03-23T13:51:55.843Z,25.99
2018-03-23T13:54:24.477Z,25.92
2018-03-23T13:56:53.472Z,24.99
2018-03-23T13:59:27.691Z,24.78
2018-03-23T14:01:56.397Z,24.50
2018-03-23T14:04:25.517Z,25.98
2018-03-23T14:06:54.890Z,26.54
2018-03-23T14:09:24.392Z,26.58
2018-03-23T14:11:54.308Z,25.71
2018-03-23T14:14:23.087Z,24.83
2018-03-23T14:16:51.929Z,25.46
2018-03-23T14:19:25.089Z,24.25
2018-03-23T14:21:54.408Z,24.25
2018-03-23T14:24:24.487Z,25.65
2018-03-23T14:26:53.294Z,26.76
2018-03-23T14:29:22.138Z,28.12
2018-03-23T14:31:50.977Z,28.37
2018-03-23T14:34:20.508Z,27.73
2018-03-23T14:36:50.843Z,28.30
2018-03-23T14:39:20.212Z,28.18
2018-03-23T14:41:48.943Z,28.48
2018-03-23T14:44:17.672Z,27.92
2018-03-23T14:46:47.169Z,27.27
2018-03-23T14:49:16.170Z,27.51
2018-03-23T14:51:45.602Z,27.45
2018-03-23T14:54:14.671Z,27.23
2018-03-23T14:56:44.248Z,27.05
2018-03-23T14:59:18.192Z,27.30
2018-03-23T15:01:49.183Z,26.94
2018-03-23T15:04:18.187Z,27.02
2018-03-23T15:06:48.631Z,26.91
2018-03-23T15:09:17.559Z,27.84
2018-03-23T15:11:47.424Z,27.90
2018-03-23T15:14:20.165Z,27.96
2018-03-23T15:16:49.916Z,29.24
2018-03-23T15:19:19.419Z,28.53
2018-03-23T15:21:48.879Z,27.95
2018-03-23T15:24:18.738Z,28.17
2018-03-23T15:26:48.045Z,28.53
2018-03-23T15:29:17.259Z,28.19
2018-03-23T15:31:46.365Z,28.56
2018-03-23T15:34:15.787Z,28.82
2018-03-23T15:36:45.822Z,28.36
2018-03-23T15:39:14.647Z,28.80
2018-03-23T15:41:43.681Z,28.68
2018-03-23T15:44:13.151Z,28.97
2018-03-23T15:46:42.862Z,28.84
2018-03-23T15:49:11.797Z,29.84
2018-03-23T15:51:41.951Z,29.84
2018-03-23T15:54:11.784Z,30.21
2018-03-23T15:56:41.399Z,29.80
2018-03-23T15:59:11.062Z,30.55
2018-03-23T16:01:39.852Z,31.26
2018-03-23T16:04:09.644Z,31.30
2018-03-23T16:06:39.667Z,31.79
2018-03-23T16:09:08.562Z,31.80
2018-03-23T16:11:38.004Z,31.65
2018-03-23T16:14:07.048Z,32.34
2018-03-23T16:16:36.767Z,32.63
2018-03-23T16:19:10.931Z,32.68
2018-03-23T16:21:40.212Z,32.69
2018-03-23T16:24:10.474Z,33.65
2018-03-23T16:26:40.267Z,33.72
2018-03-23T16:29:09.289Z,33.68
2018-03-23T16:31:38.739Z,33.86
2018-03-23T16:34:08.478Z,34.05
2018-03-23T16:36:38.306Z,34.47
2018-03-23T16:39:07.503Z,34.11
2018-03-23T16:41:36.823Z,34.50
2018-03-23T16:44:06.798Z,34.82
2018-03-23T16:46:36.856Z,35.14
2018-03-23T16:49:05.878Z,35.19
2018-03-23T16:51:34.942Z,35.74
2018-03-23T16:54:05.077Z,35.68
2018-03-23T16:56:36.383Z,35.94
2018-03-23T16:59:05.964Z,36.25
2018-03-23T17:01:35.915Z,36.74
2018-03-23T17:04:05.721Z,37.15
2018-03-23T17:06:34.903Z,37.49
2018-03-23T17:09:04.827Z,37.84
2018-03-23T17:11:34.548Z,37.95
2018-03-23T17:14:04.391Z,38.35
2018-03-23T17:16:33.494Z,38.89
2018-03-23T17:19:02.649Z,39.46
2018-03-23T17:21:31.656Z,39.64
2018-03-23T17:24:01.437Z,40.02
2018-03-23T17:26:31.236Z,40.44
2018-03-23T17:29:00.295Z,40.71
2018-03-23T17:31:29.291Z,41.00
2018-03-23T17:33:58.379Z,41.30
2018-03-23T17:36:27.459Z,41.74
2018-03-23T17:38:57.596Z,42.20
2018-03-23T17:41:27.285Z,42.17
2018-03-23T17:43:56.433Z,42.60
2018-03-23T17:46:25.627Z,42.84
2018-03-23T17:48:54.811Z,43.10
2018-03-23T17:51:24.098Z,43.51
2018-03-23T17:53:53.280Z,43.76
2018-03-23T17:56:22.383Z,43.78
2018-03-23T17:58:51.620Z,44.13
2018-03-23T18:01:21.814Z,44.53
2018-03-23T18:03:51.010Z,44.83
2018-03-23T18:06:20.399Z,44.73
2018-03-23T18:08:51.792Z,45.02
2018-03-23T18:11:21.050Z,45.27
2018-03-23T18:13:50.304Z,45.92
2018-03-23T18:16:19.359Z,45.94
2018-03-23T18:18:49.124Z,46.35
2018-03-23T18:21:18.422Z,46.53
2018-03-23T18:23:47.648Z,47.01
2018-03-23T18:26:16.813Z,47.38
2018-03-23T18:28:46.079Z,47.73
2018-03-23T18:31:15.171Z,48.10
2018-03-23T18:33:45.448Z,48.41
2018-03-23T18:36:16.276Z,48.51
2018-03-23T18:38:46.244Z,48.74
2018-03-23T18:41:17.261Z,49.14
2018-03-23T18:43:46.341Z,49.69
2018-03-23T18:46:16.382Z,49.85
2018-03-23T18:48:45.573Z,49.98
2018-03-23T18:51:15.349Z,50.32
2018-03-23T18:53:45.694Z,50.71
2018-03-23T18:56:16.217Z,50.87
2018-03-23T18:58:48.479Z,50.91
2018-03-23T19:01:17.743Z,51.07
2018-03-23T19:03:48.431Z,51.09
2018-03-23T19:06:17.747Z,51.33
2018-03-23T19:08:49.759Z,51.52
2018-03-23T19:11:22.978Z,51.60
2018-03-23T19:13:53.091Z,51.40
2018-03-23T19:16:25.545Z,51.57
2018-03-23T19:18:56.287Z,51.82
2018-03-23T19:21:26.716Z,52.43
2018-03-23T19:23:56.885Z,52.65
2018-03-23T19:26:28.833Z,52.75
2018-03-23T19:28:58.739Z,52.84
2018-03-23T19:31:29.389Z,52.73
2018-03-23T19:33:59.364Z,52.95
2018-03-23T19:36:31.166Z,53.22
2018-03-23T19:39:02.869Z,53.48
2018-03-23T19:41:35.313Z,53.63
2018-03-23T19:44:06.083Z,54.14
2018-03-23T19:46:35.714Z,54.39
2018-03-23T19:49:06.356Z,54.62
2018-03-23T19:51:36.500Z,55.13
2018-03-23T19:54:06.697Z,55.81
2018-03-23T19:56:38.895Z,56.35
2018-03-23T19:59:08.941Z,56.81
2018-03-23T20:01:39.376Z,57.34
2018-03-23T20:04:08.644Z,57.63
2018-03-23T20:06:37.733Z,57.95
2018-03-23T20:09:07.490Z,58.31
2018-03-23T20:11:38.764Z,58.70
2018-03-23T20:14:13.159Z,58.98
2018-03-23T20:16:42.693Z,59.10
2018-03-23T20:19:14.292Z,59.10
2018-03-23T20:21:43.592Z,59.49
2018-03-23T20:24:18.213Z,59.80
2018-03-23T20:26:47.715Z,60.47
2018-03-23T20:29:17.974Z,61.46
2018-03-23T20:31:52.389Z,62.32
2018-03-23T20:34:22.643Z,63.08
2018-03-23T20:36:56.041Z,63.82
2018-03-23T20:39:25.944Z,64.27
2018-03-23T20:41:55.458Z,64.71
2018-03-23T20:44:26.117Z,65.20
2018-03-23T20:46:57.019Z,65.76
2018-03-23T20:49:27.383Z,66.14
2018-03-23T20:51:56.714Z,66.16
2018-03-23T20:54:27.174Z,66.28
2018-03-23T20:56:57.910Z,66.73
2018-03-23T20:59:29.133Z,66.79
2018-03-23T21:01:59.200Z,66.93
2018-03-23T21:04:28.569Z,67.11
2018-03-23T21:06:58.781Z,67.33
2018-03-23T21:09:29.935Z,67.60
2018-03-23T21:12:00.176Z,67.92
2018-03-23T21:14:29.828Z,68.07
2018-03-23T21:17:00.334Z,67.88
2018-03-23T21:19:31.521Z,68.13
2018-03-23T21:22:00.849Z,68.34
2018-03-23T21:24:34.159Z,68.61
2018-03-23T21:27:03.519Z,68.64
2018-03-23T21:29:33.440Z,68.49
2018-03-23T21:32:03.335Z,68.88
2018-03-23T21:34:32.617Z,69.04
2018-03-23T21:37:03.288Z,69.15
2018-03-23T21:39:33.461Z,69.36
2018-03-23T21:42:04.671Z,69.20
2018-03-23T21:44:33.829Z,69.13
2018-03-23T21:47:04.129Z,69.23
2018-03-23T21:49:33.785Z,69.60
2018-03-23T21:52:03.357Z,70.14
2018-03-23T21:54:32.579Z,70.62
2018-03-23T21:57:01.963Z,70.94
2018-03-23T21:59:31.474Z,71.35
2018-03-23T22:02:00.258Z,71.78
2018-03-23T22:04:29.044Z,72.16
2018-03-23T22:06:58.487Z,72.52
2018-03-23T22:09:28.663Z,72.66
2018-03-23T22:11:57.731Z,72.72
2018-03-23T22:14:26.456Z,72.93
2018-03-23T22:16:55.775Z,72.89
2018-03-23T22:19:24.808Z,73.25
2018-03-23T22:21:53.944Z,73.58
2018-03-23T22:24:23.049Z,73.68
2018-03-23T22:26:51.818Z,73.62
2018-03-23T22:29:20.464Z,73.64
2018-03-23T22:31:49.193Z,73.62
2018-03-23T22:34:17.930Z,73.82
2018-03-23T22:36:47.782Z,73.81
2018-03-23T22:39:17.158Z,73.71
2018-03-23T22:41:46.710Z,74.03
2018-03-23T22:44:15.353Z,74.64
2018-03-23T22:46:43.983Z,74.74
2018-03-23T22:49:12.776Z,75.10
2018-03-23T22:51:41.473Z,75.27
2018-03-23T22:54:10.159Z,75.71
2018-03-23T22:56:38.861Z,76.01
2018-03-23T22:59:07.749Z,76.22
2018-03-23T23:01:37.201Z,76.32
2018-03-23T23:04:05.777Z,76.75
2018-03-23T23:06:34.478Z,76.75
2018-03-23T23:09:03.742Z,76.93
2018-03-23T23:11:33.012Z,77.62
2018-03-23T23:14:01.937Z,78.25
2018-03-23T23:16:31.347Z,78.66
2018-03-23T23:18:59.965Z,79.13
2018-03-23T23:21:29.535Z,79.26
2018-03-23T23:23:58.181Z,79.30
2018-03-23T23:26:26.910Z,79.38
2018-03-23T23:28:56.470Z,79.71
2018-03-23T23:31:25.169Z,79.49
2018-03-23T23:33:54.753Z,79.44
2018-03-23T23:36:24.185Z,79.26
2018-03-23T23:38:53.020Z,79.54
2018-03-23T23:41:22.229Z,79.67
2018-03-23T23:43:52.110Z,79.77
2018-03-23T23:46:20.738Z,79.72
2018-03-23T23:48:49.360Z,79.48
2018-03-23T23:51:18.027Z,79.60
2018-03-23T23:53:46.620Z,78.98
2018-03-23T23:56:15.350Z,78.79
2018-03-23T23:58:44.834Z,78.73
